createdAt,value
2018-12-20T00:00:48.952Z,85.30
2018-12-20T00:01:48.951Z,85.81
2018-12-20T00:02:48.922Z,85.71
2018-12-20T00:03:49.016Z,85.60
2018-12-20T00:04:48.983Z,85.71
2018-12-20T00:05:49.026Z,85.81
2018-12-20T00:06:48.965Z,85.57
2018-12-20T00:07:48.891Z,85.81
2018-12-20T00:08:48.861Z,85.39
2018-12-20T00:09:48.970Z,85.50
2018-12-20T00:10:48.852Z,85.91
2018-12-20T00:11:48.873Z,85.57
2018-12-20T00:12:48.908Z,85.67
2018-12-20T00:13:48.811Z,85.91
2018-12-20T00:14:48.817Z,86.02
2018-12-20T00:15:48.910Z,85.87
2018-12-20T00:16:48.796Z,85.97
2018-12-20T00:17:48.906Z,85.87
2018-12-20T00:18:48.839Z,85.87
2018-12-20T00:19:48.761Z,85.46
2018-12-20T00:20:48.857Z,85.97
2018-12-20T00:21:48.853Z,85.97
2018-12-20T00:22:48.703Z,85.87
2018-12-20T00:23:48.700Z,85.87
2018-12-20T00:24:48.787Z,85.46
2018-12-20T00:25:48.804Z,85.67
2018-12-20T00:26:48.674Z,85.77
2018-12-20T00:27:48.711Z,85.77
2018-12-20T00:28:48.766Z,85.77
2018-12-20T00:29:48.624Z,85.77
2018-12-20T00:30:48.630Z,85.67
2018-12-20T00:31:48.878Z,85.46
2018-12-20T00:32:48.593Z,85.77
2018-12-20T00:33:48.608Z,86.18
2018-12-20T00:34:48.570Z,85.67
2018-12-20T00:35:48.657Z,85.67
2018-12-20T00:36:48.548Z,85.46
2018-12-20T00:37:48.561Z,85.71
2018-12-20T00:38:48.586Z,86.22
2018-12-20T00:39:48.530Z,85.91
2018-12-20T00:40:48.623Z,85.71
2018-12-20T00:41:48.524Z,85.81
2018-12-20T00:42:48.484Z,86.22
2018-12-20T00:43:48.468Z,85.60
2018-12-20T00:44:48.596Z,85.81
2018-12-20T00:45:48.462Z,85.57
2018-12-20T00:46:48.497Z,86.02
2018-12-20T00:47:48.427Z,86.02
2018-12-20T00:48:48.475Z,85.81
2018-12-20T00:49:48.402Z,85.71
2018-12-20T00:50:48.427Z,85.44
2018-12-20T00:51:48.584Z,85.95
2018-12-20T00:52:48.387Z,85.60
2018-12-20T00:53:48.459Z,85.60
2018-12-20T00:54:48.435Z,85.71
2018-12-20T00:55:48.333Z,85.54
2018-12-20T00:56:48.441Z,85.50
2018-12-20T00:57:48.398Z,85.60
2018-12-20T00:58:48.298Z,85.44
2018-12-20T00:59:48.394Z,85.23
2018-12-20T01:00:48.417Z,85.54
2018-12-20T01:01:48.302Z,85.75
2018-12-20T01:02:55.084Z,85.23
2018-12-20T01:03:49.274Z,84.92
2018-12-20T01:04:48.272Z,85.23
2018-12-20T01:05:48.241Z,85.02
2018-12-20T01:06:48.398Z,85.02
2018-12-20T01:07:48.229Z,85.44
2018-12-20T01:08:48.291Z,85.27
2018-12-20T01:09:48.204Z,85.27
2018-12-20T01:10:48.321Z,85.54
2018-12-20T01:11:48.241Z,85.58
2018-12-20T01:12:48.147Z,85.75
2018-12-20T01:13:48.156Z,85.33
2018-12-20T01:14:48.149Z,85.23
2018-12-20T01:15:48.243Z,85.23
2018-12-20T01:16:48.158Z,85.13
2018-12-20T01:17:48.280Z,85.95
2018-12-20T01:18:48.192Z,85.54
2018-12-20T01:19:48.221Z,84.44
2018-12-20T01:20:48.265Z,84.44
2018-12-20T01:21:48.221Z,84.13
2018-12-20T01:22:48.057Z,84.34
2018-12-20T01:23:48.037Z,85.47
2018-12-20T01:24:48.039Z,85.27
2018-12-20T01:25:48.059Z,84.65
2018-12-20T01:26:48.076Z,84.23
2018-12-20T01:27:48.023Z,84.03
2018-12-20T01:28:48.170Z,84.13
2018-12-20T01:29:47.995Z,84.44
2018-12-20T01:30:48.151Z,84.44
2018-12-20T01:31:47.971Z,85.17
2018-12-20T01:32:48.036Z,85.89
2018-12-20T01:33:48.116Z,86.51
2018-12-20T01:34:48.035Z,85.83
2018-12-20T01:35:47.920Z,86.44
2018-12-20T01:36:47.920Z,85.83
2018-12-20T01:37:47.900Z,86.03
2018-12-20T01:38:48.015Z,85.62
2018-12-20T01:39:48.006Z,85.89
2018-12-20T01:40:47.879Z,85.52
2018-12-20T01:41:47.832Z,85.52
2018-12-20T01:42:47.824Z,85.93
2018-12-20T01:43:48.045Z,85.62
2018-12-20T01:44:53.462Z,85.00
2018-12-20T01:45:48.844Z,85.31
2018-12-20T01:46:47.897Z,85.41
2018-12-20T01:47:47.952Z,85.10
2018-12-20T01:48:47.827Z,85.72
2018-12-20T01:49:47.967Z,85.83
2018-12-20T01:50:47.791Z,86.34
2018-12-20T01:51:47.759Z,86.24
2018-12-20T01:52:47.734Z,86.55
2018-12-20T01:53:47.767Z,86.13
2018-12-20T01:54:47.830Z,86.24
2018-12-20T01:55:47.873Z,86.65
2018-12-20T01:56:47.916Z,86.76
2018-12-20T01:57:47.654Z,86.55
2018-12-20T01:58:47.665Z,86.34
2018-12-20T01:59:47.726Z,86.34
2018-12-20T02:00:47.624Z,86.24
2018-12-20T02:01:47.611Z,86.65
2018-12-20T02:02:47.715Z,87.07
2018-12-20T02:03:47.636Z,87.17
2018-12-20T02:04:47.604Z,87.17
2018-12-20T02:05:47.700Z,86.76
2018-12-20T02:06:47.583Z,86.86
2018-12-20T02:07:47.549Z,86.55
2018-12-20T02:08:47.589Z,86.96
2018-12-20T02:09:47.594Z,87.17
2018-12-20T02:10:47.517Z,87.17
2018-12-20T02:11:47.745Z,86.86
2018-12-20T02:12:47.524Z,86.86
2018-12-20T02:13:47.510Z,86.76
2018-12-20T02:14:47.480Z,87.44
2018-12-20T02:15:47.507Z,87.07
2018-12-20T02:16:47.497Z,86.96
2018-12-20T02:17:47.578Z,87.23
2018-12-20T02:18:47.461Z,87.68
2018-12-20T02:19:47.577Z,87.65
2018-12-20T02:20:47.417Z,87.68
2018-12-20T02:21:47.438Z,87.34
2018-12-20T02:22:47.391Z,87.13
2018-12-20T02:23:47.405Z,86.71
2018-12-20T02:24:47.395Z,87.44
2018-12-20T02:25:47.365Z,87.13
2018-12-20T02:26:47.379Z,87.54
2018-12-20T02:27:47.360Z,87.54
2018-12-20T02:28:47.457Z,87.54
2018-12-20T02:29:47.369Z,87.44
2018-12-20T02:30:47.546Z,87.54
2018-12-20T02:31:47.559Z,87.54
2018-12-20T02:32:47.311Z,87.23
2018-12-20T02:33:47.369Z,87.54
2018-12-20T02:34:47.281Z,87.44
2018-12-20T02:35:47.330Z,87.34
2018-12-20T02:36:47.273Z,87.13
2018-12-20T02:37:47.324Z,87.23
2018-12-20T02:38:47.219Z,86.78
2018-12-20T02:39:47.408Z,87.34
2018-12-20T02:40:47.211Z,87.34
2018-12-20T02:41:47.338Z,87.13
2018-12-20T02:42:47.477Z,87.40
2018-12-20T02:43:47.197Z,87.13
2018-12-20T02:44:47.321Z,87.23
2018-12-20T02:45:47.399Z,87.19
2018-12-20T02:46:47.184Z,87.19
2018-12-20T02:47:47.359Z,86.57
2018-12-20T02:48:47.129Z,87.50
2018-12-20T02:49:47.131Z,86.57
2018-12-20T02:50:47.097Z,86.98
2018-12-20T02:51:47.115Z,86.98
2018-12-20T02:52:47.270Z,87.29
2018-12-20T02:53:47.317Z,87.40
2018-12-20T02:54:47.172Z,87.19
2018-12-20T02:55:47.058Z,87.19
2018-12-20T02:56:47.178Z,87.08
2018-12-20T02:57:47.133Z,87.19
2018-12-20T02:58:47.089Z,87.54
2018-12-20T02:59:47.275Z,87.08
2018-12-20T03:00:47.037Z,87.29
2018-12-20T03:01:47.106Z,87.50
2018-12-20T03:02:47.065Z,87.40
2018-12-20T03:03:47.251Z,87.50
2018-12-20T03:04:47.180Z,87.40
2018-12-20T03:05:47.172Z,87.60
2018-12-20T03:06:47.108Z,87.50
2018-12-20T03:07:46.943Z,87.50
2018-12-20T03:08:47.167Z,87.40
2018-12-20T03:09:46.963Z,86.98
2018-12-20T03:10:46.987Z,86.82
2018-12-20T03:11:46.961Z,86.88
2018-12-20T03:12:46.856Z,86.88
2018-12-20T03:13:46.872Z,86.88
2018-12-20T03:14:46.887Z,86.88
2018-12-20T03:15:46.977Z,86.88
2018-12-20T03:16:46.842Z,86.88
2018-12-20T03:17:46.927Z,86.98
2018-12-20T03:18:46.957Z,86.68
2018-12-20T03:19:46.780Z,86.47
2018-12-20T03:20:46.779Z,86.92
2018-12-20T03:21:47.075Z,86.88
2018-12-20T03:22:46.775Z,86.88
2018-12-20T03:23:46.736Z,86.78
2018-12-20T03:24:46.960Z,86.82
2018-12-20T03:25:46.914Z,86.78
2018-12-20T03:26:47.030Z,87.08
2018-12-20T03:27:46.797Z,86.57
2018-12-20T03:28:46.837Z,87.08
2018-12-20T03:29:46.691Z,87.02
2018-12-20T03:30:46.982Z,86.92
2018-12-20T03:31:46.651Z,87.13
2018-12-20T03:32:46.710Z,86.82
2018-12-20T03:33:46.694Z,86.57
2018-12-20T03:34:46.716Z,86.47
2018-12-20T03:35:46.611Z,86.20
2018-12-20T03:36:46.843Z,86.36
2018-12-20T03:38:56.440Z,86.78
2018-12-20T03:40:03.989Z,86.26
2018-12-20T03:40:56.505Z,86.26
2018-12-20T03:41:56.363Z,86.26
2018-12-20T03:42:56.389Z,86.30
2018-12-20T03:43:56.642Z,86.36
2018-12-20T03:44:56.319Z,86.16
2018-12-20T03:45:56.315Z,86.30
2018-12-20T03:46:56.620Z,86.41
2018-12-20T03:47:56.287Z,85.85
2018-12-20T03:48:56.354Z,85.95
2018-12-20T03:49:56.283Z,86.16
2018-12-20T03:50:56.307Z,86.68
2018-12-20T03:51:56.328Z,86.05
2018-12-20T03:52:56.339Z,86.41
2018-12-20T03:53:56.386Z,86.26
2018-12-20T03:54:56.259Z,86.26
2018-12-20T03:55:56.402Z,86.68
2018-12-20T03:56:56.489Z,86.47
2018-12-20T03:57:56.236Z,86.57
2018-12-20T03:58:56.414Z,86.51
2018-12-20T03:59:56.185Z,86.68
2018-12-20T04:00:56.204Z,86.78
2018-12-20T04:01:56.306Z,87.08
2018-12-20T04:02:56.270Z,86.98
2018-12-20T04:03:56.178Z,86.98
2018-12-20T04:04:56.139Z,86.88
2018-12-20T04:05:56.430Z,86.78
2018-12-20T04:06:56.084Z,87.29
2018-12-20T04:07:56.176Z,87.40
2018-12-20T04:08:56.191Z,87.60
2018-12-20T04:09:56.322Z,87.29
2018-12-20T04:10:56.042Z,87.60
2018-12-20T04:11:56.029Z,87.50
2018-12-20T04:12:56.018Z,87.60
2018-12-20T04:13:56.052Z,87.60
2018-12-20T04:14:56.162Z,87.08
2018-12-20T04:15:56.008Z,87.19
2018-12-20T04:16:56.150Z,87.19
2018-12-20T04:17:56.175Z,87.29
2018-12-20T04:18:56.177Z,87.19
2018-12-20T04:19:56.149Z,87.26
2018-12-20T04:20:55.972Z,87.26
2018-12-20T04:21:56.002Z,87.29
2018-12-20T04:22:56.236Z,87.19
2018-12-20T04:23:56.267Z,87.26
2018-12-20T04:24:55.928Z,87.19
2018-12-20T04:25:55.932Z,87.50
2018-12-20T04:26:55.868Z,87.19
2018-12-20T04:27:56.068Z,87.19
2018-12-20T04:28:55.871Z,87.46
2018-12-20T04:29:55.854Z,87.50
2018-12-20T04:30:56.116Z,87.26
2018-12-20T04:31:55.847Z,87.29
2018-12-20T04:32:55.851Z,87.05
2018-12-20T04:33:55.851Z,87.26
2018-12-20T04:34:55.798Z,87.15
2018-12-20T04:35:55.979Z,87.29
2018-12-20T04:36:55.790Z,87.26
2018-12-20T04:37:55.979Z,87.08
2018-12-20T04:38:55.867Z,87.46
2018-12-20T04:39:55.902Z,87.26
2018-12-20T04:40:56.013Z,87.15
2018-12-20T04:41:56.019Z,87.26
2018-12-20T04:42:55.903Z,87.26
2018-12-20T04:43:55.695Z,87.15
2018-12-20T04:44:55.702Z,87.26
2018-12-20T04:45:55.782Z,87.15
2018-12-20T04:46:55.657Z,87.05
2018-12-20T04:47:55.759Z,87.26
2018-12-20T04:48:55.651Z,87.60
2018-12-20T04:49:55.810Z,87.46
2018-12-20T04:50:55.719Z,87.46
2018-12-20T04:51:56.001Z,87.35
2018-12-20T04:52:55.938Z,87.35
2018-12-20T04:53:55.638Z,87.26
2018-12-20T04:54:55.661Z,87.15
2018-12-20T04:55:55.584Z,87.26
2018-12-20T04:56:55.579Z,87.35
2018-12-20T04:57:55.621Z,87.26
2018-12-20T04:58:55.530Z,87.26
2018-12-20T04:59:55.627Z,87.15
2018-12-20T05:00:55.766Z,86.94
2018-12-20T05:01:55.782Z,87.35
2018-12-20T05:02:55.850Z,86.94
2018-12-20T05:03:55.493Z,87.26
2018-12-20T05:04:55.529Z,87.35
2018-12-20T05:05:55.717Z,87.05
2018-12-20T05:06:55.439Z,87.26
2018-12-20T05:07:55.691Z,86.94
2018-12-20T05:08:55.537Z,87.01
2018-12-20T05:09:55.747Z,86.84
2018-12-20T05:10:55.464Z,87.05
2018-12-20T05:11:55.483Z,86.90
2018-12-20T05:12:55.377Z,86.84
2018-12-20T05:13:55.564Z,87.15
2018-12-20T05:14:55.443Z,87.11
2018-12-20T05:15:56.328Z,87.05
2018-12-20T05:16:55.439Z,87.05
2018-12-20T05:17:55.335Z,87.05
2018-12-20T05:18:55.443Z,87.15
2018-12-20T05:19:55.412Z,87.35
2018-12-20T05:20:55.286Z,87.46
2018-12-20T05:21:55.521Z,87.52
2018-12-20T05:22:55.276Z,87.87
2018-12-20T05:23:55.469Z,87.52
2018-12-20T05:24:55.279Z,87.63
2018-12-20T05:25:55.362Z,87.46
2018-12-20T05:26:55.448Z,88.14
2018-12-20T05:27:55.238Z,87.32
2018-12-20T05:28:55.525Z,87.42
2018-12-20T05:29:55.233Z,87.52
2018-12-20T05:30:55.341Z,87.63
2018-12-20T05:31:55.407Z,87.42
2018-12-20T05:32:55.364Z,87.93
2018-12-20T05:33:55.398Z,87.42
2018-12-20T05:34:55.286Z,87.63
2018-12-20T05:35:55.142Z,87.52
2018-12-20T05:36:55.202Z,87.63
2018-12-20T05:37:55.187Z,87.32
2018-12-20T05:38:55.105Z,87.42
2018-12-20T05:39:55.182Z,87.83
2018-12-20T05:40:55.173Z,88.45
2018-12-20T05:41:55.231Z,88.45
2018-12-20T05:42:55.077Z,88.56
2018-12-20T05:43:55.040Z,88.35
2018-12-20T05:44:55.045Z,87.93
2018-12-20T05:45:55.044Z,88.45
2018-12-20T05:46:55.208Z,88.45
2018-12-20T05:47:55.201Z,88.35
2018-12-20T05:48:55.036Z,88.45
2018-12-20T05:49:54.997Z,88.24
2018-12-20T05:50:55.023Z,88.45
2018-12-20T05:51:54.955Z,88.45
2018-12-20T05:52:54.961Z,88.45
2018-12-20T05:53:55.137Z,88.45
2018-12-20T05:54:54.946Z,88.41
2018-12-20T05:55:54.914Z,88.24
2018-12-20T05:56:54.979Z,87.93
2018-12-20T05:57:55.256Z,88.35
2018-12-20T05:58:54.933Z,87.93
2018-12-20T05:59:55.105Z,87.99
2018-12-20T06:00:55.081Z,88.10
2018-12-20T06:01:54.861Z,88.24
2018-12-20T06:02:55.152Z,88.41
2018-12-20T06:03:54.888Z,88.45
2018-12-20T06:04:54.902Z,88.10
2018-12-20T06:05:55.092Z,88.04
2018-12-20T06:06:54.802Z,88.45
2018-12-20T06:07:54.803Z,88.20
2018-12-20T06:08:54.980Z,87.90
2018-12-20T06:09:54.754Z,88.04
2018-12-20T06:10:54.969Z,87.90
2018-12-20T06:11:54.772Z,87.99
2018-12-20T06:12:54.841Z,88.41
2018-12-20T06:13:55.320Z,88.82
2018-12-20T06:14:54.772Z,88.31
2018-12-20T06:15:54.942Z,88.72
2018-12-20T06:16:54.669Z,88.41
2018-12-20T06:17:54.721Z,88.51
2018-12-20T06:18:54.645Z,88.41
2018-12-20T06:19:54.729Z,88.92
2018-12-20T06:20:54.663Z,88.62
2018-12-20T06:21:54.625Z,89.13
2018-12-20T06:22:54.632Z,89.44
2018-12-20T06:23:54.593Z,88.72
2018-12-20T06:24:54.610Z,89.44
2018-12-20T06:25:54.597Z,89.03
2018-12-20T06:26:54.556Z,89.23
2018-12-20T06:27:54.549Z,88.92
2018-12-20T06:28:54.559Z,88.82
2018-12-20T06:29:54.554Z,88.92
2018-12-20T06:30:54.578Z,89.03
2018-12-20T06:31:54.529Z,89.75
2018-12-20T06:32:54.518Z,89.54
2018-12-20T06:33:54.521Z,89.54
2018-12-20T06:34:54.476Z,89.65
2018-12-20T06:35:54.533Z,89.34
2018-12-20T06:36:54.501Z,89.44
2018-12-20T06:37:54.431Z,89.34
2018-12-20T06:38:54.426Z,89.34
2018-12-20T06:39:54.461Z,89.44
2018-12-20T06:40:54.432Z,89.65
2018-12-20T06:41:54.464Z,89.54
2018-12-20T06:42:54.378Z,89.34
2018-12-20T06:43:54.367Z,89.54
2018-12-20T06:44:54.388Z,89.75
2018-12-20T06:45:54.343Z,89.85
2018-12-20T06:46:54.364Z,89.85
2018-12-20T06:47:54.330Z,89.75
2018-12-20T06:48:54.309Z,89.75
2018-12-20T06:49:54.304Z,89.54
2018-12-20T06:50:54.293Z,89.54
2018-12-20T06:51:55.909Z,89.75
2018-12-20T06:52:54.269Z,89.54
2018-12-20T06:53:54.273Z,89.75
2018-12-20T06:54:54.283Z,89.75
2018-12-20T06:55:54.230Z,89.75
2018-12-20T06:56:54.252Z,89.65
2018-12-20T06:57:54.233Z,89.65
2018-12-20T06:58:54.218Z,89.44
2018-12-20T06:59:54.189Z,89.85
2018-12-20T07:00:54.194Z,89.85
2018-12-20T07:01:54.166Z,89.75
2018-12-20T07:02:54.491Z,89.85
2018-12-20T07:03:54.143Z,89.85
2018-12-20T07:04:54.136Z,89.54
2018-12-20T07:05:54.124Z,89.13
2018-12-20T07:06:54.107Z,89.23
2018-12-20T07:07:54.111Z,89.54
2018-12-20T07:08:54.111Z,89.54
2018-12-20T07:09:54.082Z,89.54
2018-12-20T07:10:54.095Z,89.54
2018-12-20T07:11:54.076Z,89.44
2018-12-20T07:12:54.059Z,89.40
2018-12-20T07:13:54.029Z,89.54
2018-12-20T07:14:54.034Z,90.26
2018-12-20T07:15:54.045Z,89.65
2018-12-20T07:16:53.998Z,89.03
2018-12-20T07:17:53.985Z,89.23
2018-12-20T07:18:53.979Z,89.34
2018-12-20T07:19:53.968Z,89.54
2018-12-20T07:20:53.987Z,89.44
2018-12-20T07:21:53.936Z,89.54
2018-12-20T07:22:53.944Z,89.44
2018-12-20T07:23:53.911Z,89.34
2018-12-20T07:24:53.916Z,89.54
2018-12-20T07:25:53.892Z,89.65
2018-12-20T07:26:54.035Z,89.54
2018-12-20T07:27:53.872Z,89.54
2018-12-20T07:28:53.857Z,89.54
2018-12-20T07:29:53.863Z,88.89
2018-12-20T07:30:53.845Z,89.13
2018-12-20T07:31:53.866Z,88.92
2018-12-20T07:32:53.828Z,89.75
2018-12-20T07:33:53.833Z,88.92
2018-12-20T07:34:53.794Z,89.75
2018-12-20T07:35:53.797Z,88.92
2018-12-20T07:36:53.787Z,89.54
2018-12-20T07:37:53.993Z,89.65
2018-12-20T07:38:53.755Z,89.95
2018-12-20T07:39:53.740Z,89.34
2018-12-20T07:40:53.730Z,88.82
2018-12-20T07:41:53.715Z,89.03
2018-12-20T07:42:53.705Z,89.03
2018-12-20T07:43:53.717Z,89.44
2018-12-20T07:44:53.679Z,89.19
2018-12-20T07:45:53.671Z,89.34
2018-12-20T07:46:53.659Z,88.51
2018-12-20T07:47:53.644Z,88.47
2018-12-20T07:48:53.636Z,89.13
2018-12-20T07:49:53.671Z,88.92
2018-12-20T07:50:53.614Z,88.47
2018-12-20T07:51:53.630Z,88.51
2018-12-20T07:52:53.624Z,88.51
2018-12-20T07:53:53.577Z,88.62
2018-12-20T07:54:53.589Z,88.10
2018-12-20T07:55:53.599Z,88.06
2018-12-20T07:56:53.564Z,87.85
2018-12-20T07:57:53.543Z,88.68
2018-12-20T07:58:53.601Z,88.47
2018-12-20T07:59:53.529Z,88.41
2018-12-20T08:00:53.531Z,87.85
2018-12-20T08:01:53.517Z,88.06
2018-12-20T08:02:53.480Z,88.41
2018-12-20T08:03:53.494Z,88.51
2018-12-20T08:04:53.481Z,88.41
2018-12-20T08:05:53.448Z,88.06
2018-12-20T08:06:53.449Z,87.27
2018-12-20T08:07:53.420Z,87.90
2018-12-20T08:08:53.415Z,87.90
2018-12-20T08:09:53.446Z,88.20
2018-12-20T08:10:53.418Z,88.26
2018-12-20T08:11:53.373Z,88.10
2018-12-20T08:12:53.384Z,88.10
2018-12-20T08:13:53.376Z,88.41
2018-12-20T08:14:53.402Z,87.99
2018-12-20T08:15:53.354Z,87.99
2018-12-20T08:16:53.319Z,87.90
2018-12-20T08:17:53.326Z,88.41
2018-12-20T08:18:53.328Z,88.20
2018-12-20T08:19:53.342Z,87.85
2018-12-20T08:20:53.302Z,87.96
2018-12-20T08:21:53.295Z,88.06
2018-12-20T08:22:53.250Z,87.96
2018-12-20T08:23:53.268Z,87.75
2018-12-20T08:24:53.235Z,87.44
2018-12-20T08:25:53.214Z,87.65
2018-12-20T08:26:53.202Z,87.54
2018-12-20T08:27:53.229Z,87.44
2018-12-20T08:28:53.206Z,87.75
2018-12-20T08:29:53.199Z,87.54
2018-12-20T08:30:53.198Z,87.54
2018-12-20T08:31:53.151Z,88.06
2018-12-20T08:32:53.136Z,87.75
2018-12-20T08:33:53.121Z,87.75
2018-12-20T08:34:53.135Z,87.81
2018-12-20T08:35:53.131Z,87.40
2018-12-20T08:36:53.089Z,87.54
2018-12-20T08:37:53.074Z,87.51
2018-12-20T08:38:53.071Z,87.34
2018-12-20T08:39:53.053Z,87.54
2018-12-20T08:40:53.082Z,87.65
2018-12-20T08:41:53.036Z,87.81
2018-12-20T08:42:53.026Z,87.75
2018-12-20T08:43:53.044Z,87.65
2018-12-20T08:44:53.001Z,87.24
2018-12-20T08:45:52.987Z,87.75
2018-12-20T08:46:54.430Z,87.24
2018-12-20T08:47:52.967Z,87.24
2018-12-20T08:48:52.960Z,87.34
2018-12-20T08:49:52.945Z,87.34
2018-12-20T08:50:52.958Z,87.19
2018-12-20T08:51:52.951Z,87.34
2018-12-20T08:52:52.932Z,87.92
2018-12-20T08:53:52.940Z,87.54
2018-12-20T08:54:52.886Z,87.65
2018-12-20T08:55:52.884Z,87.54
2018-12-20T08:56:52.931Z,87.65
2018-12-20T08:57:52.875Z,87.54
2018-12-20T08:58:52.839Z,87.54
2018-12-20T08:59:52.875Z,87.24
2018-12-20T09:00:52.819Z,87.24
2018-12-20T09:01:52.860Z,87.03
2018-12-20T09:02:52.814Z,86.93
2018-12-20T09:03:52.785Z,87.24
2018-12-20T09:04:52.798Z,87.24
2018-12-20T09:05:52.782Z,87.03
2018-12-20T09:06:52.802Z,87.19
2018-12-20T09:07:52.747Z,87.24
2018-12-20T09:08:52.730Z,87.09
2018-12-20T09:09:52.717Z,87.03
2018-12-20T09:10:52.735Z,87.03
2018-12-20T09:11:52.743Z,86.82
2018-12-20T09:12:52.713Z,86.61
2018-12-20T09:13:52.688Z,86.82
2018-12-20T09:14:52.687Z,87.13
2018-12-20T09:15:52.666Z,86.82
2018-12-20T09:16:52.688Z,86.82
2018-12-20T09:17:52.631Z,87.24
2018-12-20T09:18:52.665Z,86.93
2018-12-20T09:19:52.605Z,87.09
2018-12-20T09:20:52.643Z,87.24
2018-12-20T09:21:52.582Z,87.03
2018-12-20T09:22:52.566Z,86.93
2018-12-20T09:23:52.555Z,87.44
2018-12-20T09:24:52.574Z,86.88
2018-12-20T09:25:52.536Z,86.82
2018-12-20T09:26:52.553Z,86.41
2018-12-20T09:27:52.534Z,86.68
2018-12-20T09:28:53.348Z,86.68
2018-12-20T09:29:52.490Z,86.79
2018-12-20T09:30:52.491Z,86.88
2018-12-20T09:31:52.493Z,87.09
2018-12-20T09:32:52.465Z,87.30
2018-12-20T09:33:52.447Z,87.30
2018-12-20T09:34:52.436Z,86.68
2018-12-20T09:35:52.426Z,86.37
2018-12-20T09:36:52.406Z,86.47
2018-12-20T09:37:52.443Z,86.68
2018-12-20T09:38:52.384Z,86.79
2018-12-20T09:39:52.415Z,86.47
2018-12-20T09:40:52.449Z,86.47
2018-12-20T09:41:52.356Z,86.37
2018-12-20T09:42:52.345Z,86.47
2018-12-20T09:43:52.359Z,86.16
2018-12-20T09:44:52.345Z,85.65
2018-12-20T09:45:52.335Z,85.65
2018-12-20T09:46:52.319Z,85.86
2018-12-20T09:47:52.301Z,86.06
2018-12-20T09:48:52.305Z,85.44
2018-12-20T09:49:52.267Z,85.61
2018-12-20T09:50:52.248Z,85.55
2018-12-20T09:51:52.238Z,85.10
2018-12-20T09:52:52.225Z,85.30
2018-12-20T09:53:52.291Z,85.10
2018-12-20T09:54:52.225Z,85.44
2018-12-20T09:55:52.217Z,85.10
2018-12-20T09:56:52.208Z,85.20
2018-12-20T09:57:52.219Z,85.30
2018-12-20T09:58:52.206Z,84.89
2018-12-20T09:59:52.386Z,85.10
2018-12-20T10:00:52.193Z,85.30
2018-12-20T10:01:52.236Z,84.99
2018-12-20T10:02:52.139Z,84.79
2018-12-20T10:03:52.151Z,84.58
2018-12-20T10:04:52.124Z,84.89
2018-12-20T10:05:52.377Z,84.58
2018-12-20T10:06:52.080Z,84.79
2018-12-20T10:07:52.062Z,85.16
2018-12-20T10:08:52.049Z,84.03
2018-12-20T10:09:52.034Z,84.03
2018-12-20T10:10:52.033Z,84.44
2018-12-20T10:11:52.029Z,84.03
2018-12-20T10:12:52.006Z,84.54
2018-12-20T10:13:52.272Z,83.62
2018-12-20T10:14:52.018Z,84.44
2018-12-20T10:15:51.977Z,84.13
2018-12-20T10:16:51.958Z,83.72
2018-12-20T10:17:51.946Z,83.92
2018-12-20T10:18:51.953Z,83.68
2018-12-20T10:19:51.950Z,83.83
2018-12-20T10:20:51.946Z,83.51
2018-12-20T10:21:51.923Z,84.03
2018-12-20T10:22:51.896Z,83.62
2018-12-20T10:23:51.903Z,83.51
2018-12-20T10:24:51.867Z,83.83
2018-12-20T10:25:51.874Z,83.78
2018-12-20T10:26:51.866Z,83.78
2018-12-20T10:27:51.834Z,83.68
2018-12-20T10:28:51.817Z,83.48
2018-12-20T10:29:51.834Z,83.37
2018-12-20T10:30:51.799Z,83.27
2018-12-20T10:31:51.839Z,83.37
2018-12-20T10:32:51.825Z,83.23
2018-12-20T10:33:51.804Z,82.86
2018-12-20T10:34:51.972Z,82.82
2018-12-20T10:35:51.756Z,82.96
2018-12-20T10:36:51.742Z,82.82
2018-12-20T10:37:51.721Z,83.06
2018-12-20T10:38:51.709Z,81.93
2018-12-20T10:39:51.699Z,82.10
2018-12-20T10:40:51.714Z,82.41
2018-12-20T10:41:51.679Z,82.92
2018-12-20T10:42:51.719Z,83.03
2018-12-20T10:43:51.659Z,82.55
2018-12-20T10:44:51.641Z,82.55
2018-12-20T10:45:51.672Z,82.34
2018-12-20T10:46:51.648Z,82.14
2018-12-20T10:47:51.624Z,82.04
2018-12-20T10:48:51.605Z,82.45
2018-12-20T10:49:51.631Z,82.14
2018-12-20T10:50:51.611Z,82.10
2018-12-20T10:51:51.571Z,82.20
2018-12-20T10:52:51.584Z,81.79
2018-12-20T10:53:51.545Z,81.52
2018-12-20T10:54:51.545Z,82.34
2018-12-20T10:55:51.536Z,81.93
2018-12-20T10:56:51.514Z,81.90
2018-12-20T10:57:51.527Z,81.62
2018-12-20T10:58:51.534Z,81.48
2018-12-20T10:59:51.479Z,81.73
2018-12-20T11:00:51.510Z,81.42
2018-12-20T11:01:51.485Z,81.52
2018-12-20T11:02:51.480Z,81.38
2018-12-20T11:03:51.433Z,81.48
2018-12-20T11:04:51.453Z,81.79
2018-12-20T11:05:51.452Z,81.62
2018-12-20T11:06:51.403Z,81.83
2018-12-20T11:07:51.390Z,81.11
2018-12-20T11:08:51.399Z,81.38
2018-12-20T11:09:51.379Z,81.52
2018-12-20T11:10:51.387Z,81.79
2018-12-20T11:11:51.349Z,81.38
2018-12-20T11:12:51.383Z,81.52
2018-12-20T11:13:51.327Z,81.18
2018-12-20T11:14:51.326Z,80.87
2018-12-20T11:15:51.338Z,81.69
2018-12-20T11:16:51.292Z,81.48
2018-12-20T11:17:51.280Z,81.28
2018-12-20T11:18:51.322Z,81.18
2018-12-20T11:19:51.257Z,81.07
2018-12-20T11:20:51.264Z,81.28
2018-12-20T11:21:51.274Z,81.38
2018-12-20T11:22:51.231Z,81.62
2018-12-20T11:23:51.220Z,81.38
2018-12-20T11:24:51.228Z,81.48
2018-12-20T11:25:51.221Z,80.87
2018-12-20T11:26:51.182Z,81.18
2018-12-20T11:27:51.189Z,81.28
2018-12-20T11:28:51.171Z,80.66
2018-12-20T11:29:51.160Z,80.97
2018-12-20T11:30:51.147Z,80.97
2018-12-20T11:31:51.147Z,80.66
2018-12-20T11:32:51.109Z,80.15
2018-12-20T11:33:51.129Z,80.77
2018-12-20T11:34:51.096Z,79.94
2018-12-20T11:35:51.108Z,80.25
2018-12-20T11:36:51.115Z,80.35
2018-12-20T11:37:51.085Z,80.66
2018-12-20T11:38:51.049Z,80.66
2018-12-20T11:39:59.202Z,80.66
2018-12-20T11:40:52.096Z,80.87
2018-12-20T11:41:51.049Z,80.35
2018-12-20T11:42:51.047Z,79.60
2018-12-20T11:43:51.308Z,80.21
2018-12-20T11:44:51.312Z,80.15
2018-12-20T11:45:50.990Z,80.32
2018-12-20T11:46:51.020Z,80.21
2018-12-20T11:47:51.077Z,80.42
2018-12-20T11:48:51.904Z,80.11
2018-12-20T11:49:50.950Z,80.35
2018-12-20T11:50:50.949Z,80.21
2018-12-20T11:51:50.930Z,80.56
2018-12-20T11:52:50.893Z,80.56
2018-12-20T11:53:50.912Z,80.56
2018-12-20T11:54:50.865Z,80.87
2018-12-20T11:55:50.883Z,81.07
2018-12-20T11:56:50.878Z,81.38
2018-12-20T11:57:50.841Z,81.28
2018-12-20T11:58:50.880Z,82.00
2018-12-20T11:59:50.860Z,82.51
2018-12-20T12:00:50.803Z,82.10
2018-12-20T12:01:50.793Z,82.20
2018-12-20T12:02:50.803Z,82.71
2018-12-20T12:03:57.426Z,82.82
2018-12-20T12:04:51.763Z,82.82
2018-12-20T12:05:50.756Z,82.71
2018-12-20T12:06:50.736Z,82.82
2018-12-20T12:07:50.751Z,82.62
2018-12-20T12:08:50.830Z,82.71
2018-12-20T12:09:50.736Z,82.41
2018-12-20T12:10:50.703Z,82.92
2018-12-20T12:11:50.696Z,82.82
2018-12-20T12:12:50.693Z,82.10
2018-12-20T12:13:50.933Z,82.41
2018-12-20T12:14:50.659Z,82.41
2018-12-20T12:15:50.653Z,82.20
2018-12-20T12:16:50.659Z,82.20
2018-12-20T12:17:54.354Z,82.41
2018-12-20T12:18:50.629Z,83.03
2018-12-20T12:19:50.594Z,82.41
2018-12-20T12:20:50.582Z,82.20
2018-12-20T12:21:50.579Z,82.31
2018-12-20T12:22:50.558Z,81.90
2018-12-20T12:23:50.575Z,81.59
2018-12-20T12:24:50.543Z,81.69
2018-12-20T12:25:50.704Z,81.59
2018-12-20T12:26:50.535Z,81.59
2018-12-20T12:27:50.512Z,82.10
2018-12-20T12:28:50.515Z,81.90
2018-12-20T12:29:50.589Z,81.59
2018-12-20T12:30:50.469Z,81.86
2018-12-20T12:31:50.459Z,81.34
2018-12-20T12:32:50.519Z,81.24
2018-12-20T12:33:50.444Z,81.34
2018-12-20T12:34:50.502Z,81.48
2018-12-20T12:35:50.408Z,80.93
2018-12-20T12:36:50.414Z,81.24
2018-12-20T12:37:50.406Z,80.63
2018-12-20T12:38:50.379Z,80.93
2018-12-20T12:39:50.405Z,81.76
2018-12-20T12:40:50.357Z,81.59
2018-12-20T12:41:50.351Z,81.14
2018-12-20T12:42:50.334Z,80.97
2018-12-20T12:43:50.884Z,81.55
2018-12-20T12:44:50.318Z,81.55
2018-12-20T12:45:50.332Z,81.38
2018-12-20T12:46:50.292Z,81.14
2018-12-20T12:47:50.292Z,80.87
2018-12-20T12:48:50.273Z,80.73
2018-12-20T12:49:50.262Z,80.42
2018-12-20T12:50:50.250Z,80.63
2018-12-20T12:51:53.116Z,80.63
2018-12-20T12:52:50.225Z,80.32
2018-12-20T12:53:50.214Z,80.21